sensor_id;sensor_type;location;lat;lon;timestamp;pressure;altitude;pressure_sealevel;temperature;humidity
30682;BME280;17439;48.092;11.842;2023-04-27T00:00:43;95457.69;;;8.33;62.44
30682;BME280;17439;48.092;11.842;2023-04-27T00:03:09;95445.41;;;8.27;62.57
30682;BME280;17439;48.092;11.842;2023-04-27T00:05:37;95455.69;;;8.25;62.41
30682;BME280;17439;48.092;11.842;2023-04-27T00:08:05;95447.25;;;8.13;61.14
30682;BME280;17439;48.092;11.842;2023-04-27T00:10:32;95438.88;;;8.14;62.46
30682;BME280;17439;48.092;11.842;2023-04-27T00:12:59;95446.44;;;8.12;62.36
30682;BME280;17439;48.092;11.842;2023-04-27T00:15:26;95451.63;;;8.09;62.32
30682;BME280;17439;48.092;11.842;2023-04-27T00:17:53;95440.63;;;8.05;62.37
30682;BME280;17439;48.092;11.842;2023-04-27T00:20:20;95439.31;;;8.03;62.54
30682;BME280;17439;48.092;11.842;2023-04-27T00:22:47;95439.91;;;7.99;62.68
30682;BME280;17439;48.092;11.842;2023-04-27T00:25:13;95437.00;;;7.96;62.98
30682;BME280;17439;48.092;11.842;2023-04-27T00:27:40;95440.28;;;7.93;63.11
30682;BME280;17439;48.092;11.842;2023-04-27T00:30:08;95435.16;;;7.91;63.07
30682;BME280;17439;48.092;11.842;2023-04-27T00:32:35;95432.75;;;7.90;63.28
30682;BME280;17439;48.092;11.842;2023-04-27T00:35:01;95430.06;;;7.90;63.49
30682;BME280;17439;48.092;11.842;2023-04-27T00:37:28;95431.16;;;7.89;63.46
30682;BME280;17439;48.092;11.842;2023-04-27T00:39:55;95434.66;;;7.89;63.31
30682;BME280;17439;48.092;11.842;2023-04-27T00:42:22;95433.56;;;7.90;63.15
30682;BME280;17439;48.092;11.842;2023-04-27T00:44:49;95434.66;;;7.89;63.22
30682;BME280;17439;48.092;11.842;2023-04-27T00:47:16;95436.25;;;7.90;63.21
30682;BME280;17439;48.092;11.842;2023-04-27T00:49:43;95427.38;;;7.90;63.28
30682;BME280;17439;48.092;11.842;2023-04-27T00:52:10;95423.59;;;7.91;63.22
30682;BME280;17439;48.092;11.842;2023-04-27T00:54:37;95422.75;;;7.90;63.14
30682;BME280;17439;48.092;11.842;2023-04-27T00:57:04;95428.69;;;7.92;63.09
30682;BME280;17439;48.092;11.842;2023-04-27T00:59:31;95431.38;;;7.92;63.23
30682;BME280;17439;48.092;11.842;2023-04-27T01:01:58;95431.69;;;7.91;63.25
30682;BME280;17439;48.092;11.842;2023-04-27T01:04:25;95435.16;;;7.91;63.26
30682;BME280;17439;48.092;11.842;2023-04-27T01:06:52;95431.69;;;7.91;63.60
30682;BME280;17439;48.092;11.842;2023-04-27T01:09:19;95433.25;;;7.92;63.66
30682;BME280;17439;48.092;11.842;2023-04-27T01:11:48;95431.38;;;7.92;63.75
30682;BME280;17439;48.092;11.842;2023-04-27T01:14:15;95436.50;;;7.94;63.67
30682;BME280;17439;48.092;11.842;2023-04-27T01:16:42;95438.91;;;7.95;63.84
30682;BME280;17439;48.092;11.842;2023-04-27T01:19:09;95432.38;;;7.96;63.94
30682;BME280;17439;48.092;11.842;2023-04-27T01:21:37;95428.59;;;7.97;63.88
30682;BME280;17439;48.092;11.842;2023-04-27T01:24:07;95426.41;;;7.99;63.05
30682;BME280;17439;48.092;11.842;2023-04-27T01:26:36;95433.41;;;8.01;63.79
30682;BME280;17439;48.092;11.842;2023-04-27T01:29:03;95429.88;;;8.00;63.59
30682;BME280;17439;48.092;11.842;2023-04-27T01:31:29;95433.41;;;8.01;63.60
30682;BME280;17439;48.092;11.842;2023-04-27T01:33:56;95433.41;;;8.01;63.72
30682;BME280;17439;48.092;11.842;2023-04-27T01:36:23;95439.09;;;7.99;63.91
30682;BME280;17439;48.092;11.842;2023-04-27T01:38:50;95439.09;;;7.99;63.70
30682;BME280;17439;48.092;11.842;2023-04-27T01:41:16;95434.78;;;7.98;63.78
30682;BME280;17439;48.092;11.842;2023-04-27T01:43:43;95442.09;;;7.97;63.79
30682;BME280;17439;48.092;11.842;2023-04-27T01:46:12;95438.91;;;7.95;63.72
30682;BME280;17439;48.092;11.842;2023-04-27T01:48:39;95439.69;;;7.96;63.85
30682;BME280;17439;48.092;11.842;2023-04-27T01:51:06;95444.28;;;7.95;63.87
30682;BME280;17439;48.092;11.842;2023-04-27T01:53:33;95441.59;;;7.95;64.13
30682;BME280;17439;48.092;11.842;2023-04-27T01:56:00;95437.78;;;7.96;64.06
30682;BME280;17439;48.092;11.842;2023-04-27T01:58:27;95447.50;;;7.97;64.09
30682;BME280;17439;48.092;11.842;2023-04-27T02:00:54;95443.19;;;7.96;64.17
30682;BME280;17439;48.092;11.842;2023-04-27T02:03:20;95453.41;;;7.99;64.18
30682;BME280;17439;48.092;11.842;2023-04-27T02:05:49;95443.78;;;7.93;63.38
30682;BME280;17439;48.092;11.842;2023-04-27T02:08:15;95450.41;;;8.01;63.91
30682;BME280;17439;48.092;11.842;2023-04-27T02:10:43;95452.81;;;8.03;63.90
30682;BME280;17439;48.092;11.842;2023-04-27T02:13:10;95453.59;;;8.03;63.79
30682;BME280;17439;48.092;11.842;2023-04-27T02:15:37;95455.50;;;8.03;63.77
30682;BME280;17439;48.092;11.842;2023-04-27T02:18:03;95453.09;;;8.01;63.70
30682;BME280;17439;48.092;11.842;2023-04-27T02:20:31;95462.00;;;8.02;63.94
30682;BME280;17439;48.092;11.842;2023-04-27T02:22:59;95462.28;;;8.00;64.06
30682;BME280;17439;48.092;11.842;2023-04-27T02:25:26;95456.09;;;7.99;64.00
30682;BME280;17439;48.092;11.842;2023-04-27T02:27:53;95459.88;;;7.98;64.08
30682;BME280;17439;48.092;11.842;2023-04-27T02:30:20;95461.00;;;7.97;64.35
30682;BME280;17439;48.092;11.842;2023-04-27T02:32:47;95464.00;;;7.96;64.13
30682;BME280;17439;48.092;11.842;2023-04-27T02:35:14;95469.69;;;7.94;64.07
30682;BME280;17439;48.092;11.842;2023-04-27T02:37:41;95469.19;;;7.92;64.19
30682;BME280;17439;48.092;11.842;2023-04-27T02:40:08;95468.34;;;7.92;64.25
30682;BME280;17439;48.092;11.842;2023-04-27T02:42:35;95470.25;;;7.91;63.96
30682;BME280;17439;48.092;11.842;2023-04-27T02:45:01;95464.38;;;7.89;63.89
30682;BME280;17439;48.092;11.842;2023-04-27T02:47:28;95470.84;;;7.88;63.97
30682;BME280;17439;48.092;11.842;2023-04-27T02:49:55;95463.34;;;7.85;63.99
30682;BME280;17439;48.092;11.842;2023-04-27T02:52:22;95473.91;;;7.81;64.02
30682;BME280;17439;48.092;11.842;2023-04-27T02:54:49;95473.91;;;7.81;64.08
30682;BME280;17439;48.092;11.842;2023-04-27T02:57:15;95469.91;;;7.79;64.04
30682;BME280;17439;48.092;11.842;2023-04-27T02:59:42;95468.59;;;7.76;63.80
30682;BME280;17439;48.092;11.842;2023-04-27T03:02:09;95469.19;;;7.73;63.69
30682;BME280;17439;48.092;11.842;2023-04-27T03:04:36;95465.16;;;7.71;63.42
30682;BME280;17439;48.092;11.842;2023-04-27T03:07:03;95473.84;;;7.68;63.39
30682;BME280;17439;48.092;11.842;2023-04-27T03:09:29;95471.22;;;7.62;63.10
30682;BME280;17439;48.092;11.842;2023-04-27T03:11:56;95465.59;;;7.59;63.17
30682;BME280;17439;48.092;11.842;2023-04-27T03:14:22;95472.97;;;7.53;63.11
30682;BME280;17439;48.092;11.842;2023-04-27T03:16:50;95470.34;;;7.48;63.32
30682;BME280;17439;48.092;11.842;2023-04-27T03:19:17;95473.91;;;7.43;63.12
30682;BME280;17439;48.092;11.842;2023-04-27T03:21:43;95481.25;;;7.38;62.96
30682;BME280;17439;48.092;11.842;2023-04-27T03:24:10;95478.63;;;7.33;63.05
30682;BME280;17439;48.092;11.842;2023-04-27T03:26:36;95478.69;;;7.28;63.23
30682;BME280;17439;48.092;11.842;2023-04-27T03:29:03;95484.16;;;7.22;63.48
30682;BME280;17439;48.092;11.842;2023-04-27T03:31:30;95485.00;;;7.18;63.52
30682;BME280;17439;48.092;11.842;2023-04-27T03:33:57;95480.47;;;7.13;63.61
30682;BME280;17439;48.092;11.842;2023-04-27T03:36:23;95485.66;;;7.10;63.66
30682;BME280;17439;48.092;11.842;2023-04-27T03:38:50;95488.91;;;7.06;63.78
30682;BME280;17439;48.092;11.842;2023-04-27T03:41:17;95488.66;;;7.03;63.83
30682;BME280;17439;48.092;11.842;2023-04-27T03:43:43;95492.75;;;7.00;64.30
30682;BME280;17439;48.092;11.842;2023-04-27T03:46:10;95484.66;;;7.00;64.07
30682;BME280;17439;48.092;11.842;2023-04-27T03:48:37;95484.13;;;6.98;64.37
30682;BME280;17439;48.092;11.842;2023-04-27T03:51:04;95493.34;;;6.97;64.54
30682;BME280;17439;48.092;11.842;2023-04-27T03:53:31;95489.03;;;6.96;64.74
30682;BME280;17439;48.092;11.842;2023-04-27T03:56:01;95492.50;;;6.97;64.83
30682;BME280;17439;48.092;11.842;2023-04-27T03:58:28;95493.03;;;6.99;65.23
30682;BME280;17439;48.092;11.842;2023-04-27T04:01:24;95492.97;;;7.04;65.21
30682;BME280;17439;48.092;11.842;2023-04-27T04:03:50;95485.97;;;7.03;65.34
30682;BME280;17439;48.092;11.842;2023-04-27T04:06:17;95489.72;;;7.07;65.54
30682;BME280;17439;48.092;11.842;2023-04-27T04:08:44;95490.75;;;7.11;65.57
30682;BME280;17439;48.092;11.842;2023-04-27T04:11:11;95491.25;;;7.13;65.40
30682;BME280;17439;48.092;11.842;2023-04-27T04:13:38;95499.28;;;7.18;65.26
30682;BME280;17439;48.092;11.842;2023-04-27T04:16:06;95506.81;;;7.21;65.14
30682;BME280;17439;48.092;11.842;2023-04-27T04:18:35;95512.69;;;7.23;65.42
30682;BME280;17439;48.092;11.842;2023-04-27T04:21:03;95515.66;;;7.27;65.77
30682;BME280;17439;48.092;11.842;2023-04-27T04:23:30;95514.25;;;7.30;66.09
30682;BME280;17439;48.092;11.842;2023-04-27T04:25:57;95510.97;;;7.33;66.11
30682;BME280;17439;48.092;11.842;2023-04-27T04:28:28;95517.91;;;7.39;66.17
30682;BME280;17439;48.092;11.842;2023-04-27T04:30:55;95524.06;;;7.44;66.54
30682;BME280;17439;48.092;11.842;2023-04-27T04:33:22;95522.09;;;7.50;66.69
30682;BME280;17439;48.092;11.842;2023-04-27T04:35:49;95523.94;;;7.55;66.65
30682;BME280;17439;48.092;11.842;2023-04-27T04:38:17;95532.78;;;7.60;66.64
30682;BME280;17439;48.092;11.842;2023-04-27T04:40:44;95540.22;;;7.69;66.67
30682;BME280;17439;48.092;11.842;2023-04-27T04:43:11;95544.47;;;7.75;66.53
30682;BME280;17439;48.092;11.842;2023-04-27T04:45:38;95542.19;;;7.82;66.52
30682;BME280;17439;48.092;11.842;2023-04-27T04:48:05;95542.66;;;7.89;66.38
30682;BME280;17439;48.092;11.842;2023-04-27T04:50:31;95537.16;;;7.94;66.30
30682;BME280;17439;48.092;11.842;2023-04-27T04:52:58;95551.66;;;7.98;66.29
30682;BME280;17439;48.092;11.842;2023-04-27T04:55:25;95551.63;;;8.04;66.03
30682;BME280;17439;48.092;11.842;2023-04-27T04:57:52;95549.94;;;8.08;66.33
30682;BME280;17439;48.092;11.842;2023-04-27T05:00:19;95551.47;;;8.14;66.24
30682;BME280;17439;48.092;11.842;2023-04-27T05:02:46;95544.09;;;8.20;66.41
30682;BME280;17439;48.092;11.842;2023-04-27T05:05:13;95541.31;;;8.25;66.43
30682;BME280;17439;48.092;11.842;2023-04-27T05:07:40;95545.56;;;8.31;66.45
30682;BME280;17439;48.092;11.842;2023-04-27T05:10:09;95549.50;;;8.39;66.18
30682;BME280;17439;48.092;11.842;2023-04-27T05:12:42;95549.44;;;8.44;65.42
30682;BME280;17439;48.092;11.842;2023-04-27T05:15:10;95542.03;;;8.49;65.99
30682;BME280;17439;48.092;11.842;2023-04-27T05:17:37;95548.16;;;8.55;66.17
30682;BME280;17439;48.092;11.842;2023-04-27T05:20:05;95549.19;;;8.59;66.10
30682;BME280;17439;48.092;11.842;2023-04-27T05:22:32;95552.88;;;8.63;66.16
30682;BME280;17439;48.092;11.842;2023-04-27T05:24:58;95554.41;;;8.69;66.16
30682;BME280;17439;48.092;11.842;2023-04-27T05:27:25;95554.31;;;8.75;66.28
30682;BME280;17439;48.092;11.842;2023-04-27T05:29:51;95545.03;;;8.81;66.57
30682;BME280;17439;48.092;11.842;2023-04-27T05:32:18;95553.88;;;8.86;66.36
30682;BME280;17439;48.092;11.842;2023-04-27T05:34:45;95539.16;;;8.93;66.43
30682;BME280;17439;48.092;11.842;2023-04-27T05:37:14;95551.78;;;8.97;66.32
30682;BME280;17439;48.092;11.842;2023-04-27T05:39:41;95545.47;;;9.02;66.46
30682;BME280;17439;48.092;11.842;2023-04-27T05:42:08;95549.69;;;9.08;66.60
30682;BME280;17439;48.092;11.842;2023-04-27T05:44:35;95550.41;;;9.14;66.75
30682;BME280;17439;48.092;11.842;2023-04-27T05:47:01;95543.22;;;9.23;67.29
30682;BME280;17439;48.092;11.842;2023-04-27T05:49:28;95552.53;;;9.31;67.24
30682;BME280;17439;48.092;11.842;2023-04-27T05:51:55;95549.63;;;9.41;67.39
30682;BME280;17439;48.092;11.842;2023-04-27T05:54:21;95550.53;;;9.50;67.44
30682;BME280;17439;48.092;11.842;2023-04-27T05:56:48;95562.44;;;9.63;67.66
30682;BME280;17439;48.092;11.842;2023-04-27T05:59:15;95567.63;;;9.73;67.69
30682;BME280;17439;48.092;11.842;2023-04-27T06:01:42;95561.53;;;9.82;67.09
30682;BME280;17439;48.092;11.842;2023-04-27T06:04:09;95571.03;;;9.93;67.11
30682;BME280;17439;48.092;11.842;2023-04-27T06:06:35;95567.81;;;10.05;67.26
30682;BME280;17439;48.092;11.842;2023-04-27T06:09:02;95565.38;;;10.17;67.13
30682;BME280;17439;48.092;11.842;2023-04-27T06:11:29;95562.41;;;10.27;66.99
30682;BME280;17439;48.092;11.842;2023-04-27T06:13:55;95568.13;;;10.40;66.91
30682;BME280;17439;48.092;11.842;2023-04-27T06:16:22;95556.25;;;10.49;66.86
30682;BME280;17439;48.092;11.842;2023-04-27T06:18:49;95564.16;;;10.60;67.01
30682;BME280;17439;48.092;11.842;2023-04-27T06:21:16;95573.34;;;10.73;66.97
30682;BME280;17439;48.092;11.842;2023-04-27T06:23:43;95563.03;;;10.83;66.77
30682;BME280;17439;48.092;11.842;2023-04-27T06:26:10;95561.66;;;10.95;66.91
30682;BME280;17439;48.092;11.842;2023-04-27T06:28:37;95560.78;;;11.08;66.96
30682;BME280;17439;48.092;11.842;2023-04-27T06:31:04;95569.47;;;11.19;66.69
30682;BME280;17439;48.092;11.842;2023-04-27T06:33:31;95575.13;;;11.31;66.59
30682;BME280;17439;48.092;11.842;2023-04-27T06:35:57;95576.44;;;11.42;66.24
30682;BME280;17439;48.092;11.842;2023-04-27T06:38:25;95576.13;;;11.44;64.48
30682;BME280;17439;48.092;11.842;2023-04-27T06:40:52;95577.78;;;11.62;66.50
30682;BME280;17439;48.092;11.842;2023-04-27T06:43:18;95575.59;;;11.73;65.74
30682;BME280;17439;48.092;11.842;2023-04-27T06:45:45;95583.13;;;11.85;65.83
30682;BME280;17439;48.092;11.842;2023-04-27T06:48:12;95584.47;;;11.96;65.89
30682;BME280;17439;48.092;11.842;2023-04-27T06:50:38;95574.09;;;12.07;65.49
30682;BME280;17439;48.092;11.842;2023-04-27T06:53:05;95575.41;;;12.19;64.81
30682;BME280;17439;48.092;11.842;2023-04-27T06:55:32;95566.13;;;12.28;64.71
30682;BME280;17439;48.092;11.842;2023-04-27T06:57:58;95572.06;;;12.39;64.51
30682;BME280;17439;48.092;11.842;2023-04-27T07:00:25;95572.53;;;12.50;64.81
30682;BME280;17439;48.092;11.842;2023-04-27T07:02:52;95571.91;;;12.62;64.82
30682;BME280;17439;48.092;11.842;2023-04-27T07:05:19;95577.81;;;12.73;64.22
30682;BME280;17439;48.092;11.842;2023-04-27T07:07:46;95579.41;;;12.82;63.07
30682;BME280;17439;48.092;11.842;2023-04-27T07:10:12;95571.06;;;12.87;62.28
30682;BME280;17439;48.092;11.842;2023-04-27T07:12:41;95571.88;;;12.97;61.27
30682;BME280;17439;48.092;11.842;2023-04-27T07:15:08;95576.03;;;13.03;61.26
30682;BME280;17439;48.092;11.842;2023-04-27T07:17:35;95565.56;;;13.14;62.24
30682;BME280;17439;48.092;11.842;2023-04-27T07:20:03;95573.72;;;13.22;62.00
30682;BME280;17439;48.092;11.842;2023-04-27T07:22:31;95565.84;;;13.30;61.29
30682;BME280;17439;48.092;11.842;2023-04-27T07:24:57;95561.53;;;13.37;61.37
30682;BME280;17439;48.092;11.842;2023-04-27T07:27:24;95563.75;;;13.44;59.89
30682;BME280;17439;48.092;11.842;2023-04-27T07:29:51;95561.47;;;13.55;60.77
30682;BME280;17439;48.092;11.842;2023-04-27T07:32:17;95559.97;;;13.66;61.42
30682;BME280;17439;48.092;11.842;2023-04-27T07:34:44;95567.78;;;13.76;61.65
30682;BME280;17439;48.092;11.842;2023-04-27T07:37:20;95567.41;;;13.87;60.96
30682;BME280;17439;48.092;11.842;2023-04-27T07:39:50;95570.09;;;13.95;57.58
30682;BME280;17439;48.092;11.842;2023-04-27T07:42:18;95570.19;;;14.08;60.65
30682;BME280;17439;48.092;11.842;2023-04-27T07:44:44;95565.94;;;14.19;61.27
30682;BME280;17439;48.092;11.842;2023-04-27T07:47:11;95565.88;;;14.28;60.42
30682;BME280;17439;48.092;11.842;2023-04-27T07:49:38;95568.22;;;14.38;60.21
30682;BME280;17439;48.092;11.842;2023-04-27T07:52:04;95571.66;;;14.47;59.73
30682;BME280;17439;48.092;11.842;2023-04-27T07:54:31;95571.28;;;14.58;60.26
30682;BME280;17439;48.092;11.842;2023-04-27T07:56:57;95568.47;;;14.66;58.94
30682;BME280;17439;48.092;11.842;2023-04-27T07:59:27;95580.47;;;14.74;54.48
30682;BME280;17439;48.092;11.842;2023-04-27T08:01:54;95575.72;;;14.83;58.56
30682;BME280;17439;48.092;11.842;2023-04-27T08:04:41;95573.72;;;14.93;59.00
30682;BME280;17439;48.092;11.842;2023-04-27T08:07:08;95578.19;;;14.97;58.84
30682;BME280;17439;48.092;11.842;2023-04-27T08:09:36;95580.69;;;15.02;57.96
30682;BME280;17439;48.092;11.842;2023-04-27T08:12:03;95576.97;;;15.07;57.12
30682;BME280;17439;48.092;11.842;2023-04-27T08:14:29;95586.88;;;15.12;56.91
30682;BME280;17439;48.092;11.842;2023-04-27T08:16:56;95589.03;;;15.18;57.11
30682;BME280;17439;48.092;11.842;2023-04-27T08:19:23;95589.31;;;15.26;57.06
30682;BME280;17439;48.092;11.842;2023-04-27T08:21:50;95584.88;;;15.33;56.51
30682;BME280;17439;48.092;11.842;2023-04-27T08:24:16;95580.44;;;15.41;56.83
30682;BME280;17439;48.092;11.842;2023-04-27T08:26:43;95577.97;;;15.48;56.32
30682;BME280;17439;48.092;11.842;2023-04-27T08:29:09;95582.97;;;15.58;56.41
30682;BME280;17439;48.092;11.842;2023-04-27T08:31:52;95575.38;;;15.64;56.43
30682;BME280;17439;48.092;11.842;2023-04-27T08:34:22;95579.81;;;15.69;56.59
30682;BME280;17439;48.092;11.842;2023-04-27T08:36:48;95583.78;;;15.71;55.79
30682;BME280;17439;48.092;11.842;2023-04-27T08:39:16;95586.66;;;15.75;56.03
30682;BME280;17439;48.092;11.842;2023-04-27T08:41:42;95584.41;;;15.77;55.84
30682;BME280;17439;48.092;11.842;2023-04-27T08:44:09;95584.84;;;15.79;55.44
30682;BME280;17439;48.092;11.842;2023-04-27T08:46:36;95586.91;;;15.82;55.87
30682;BME280;17439;48.092;11.842;2023-04-27T08:49:03;95590.09;;;15.84;55.89
30682;BME280;17439;48.092;11.842;2023-04-27T08:51:31;95588.53;;;15.95;53.81
30682;BME280;17439;48.092;11.842;2023-04-27T08:53:58;95593.41;;;16.02;54.98
30682;BME280;17439;48.092;11.842;2023-04-27T08:56:26;95585.66;;;16.04;53.24
30682;BME280;17439;48.092;11.842;2023-04-27T08:58:55;95585.41;;;16.09;54.34
30682;BME280;17439;48.092;11.842;2023-04-27T09:01:23;95588.03;;;16.18;54.61
30682;BME280;17439;48.092;11.842;2023-04-27T09:03:57;95587.72;;;16.20;53.50
30682;BME280;17439;48.092;11.842;2023-04-27T09:06:33;95581.66;;;16.26;50.59
30682;BME280;17439;48.092;11.842;2023-04-27T09:09:01;95578.13;;;16.26;52.43
30682;BME280;17439;48.092;11.842;2023-04-27T09:11:31;95583.94;;;16.24;50.50
30682;BME280;17439;48.092;11.842;2023-04-27T09:14:01;95575.06;;;16.27;53.14
30682;BME280;17439;48.092;11.842;2023-04-27T09:16:29;95571.50;;;16.27;53.12
30682;BME280;17439;48.092;11.842;2023-04-27T09:18:57;95569.25;;;16.29;53.46
30682;BME280;17439;48.092;11.842;2023-04-27T09:21:28;95572.75;;;16.29;47.41
30682;BME280;17439;48.092;11.842;2023-04-27T09:23:56;95571.03;;;16.37;53.58
30682;BME280;17439;48.092;11.842;2023-04-27T09:26:26;95569.19;;;16.41;49.35
30682;BME280;17439;48.092;11.842;2023-04-27T09:28:54;95570.56;;;16.47;52.99
30682;BME280;17439;48.092;11.842;2023-04-27T09:31:21;95565.31;;;16.55;53.05
30682;BME280;17439;48.092;11.842;2023-04-27T09:33:56;95556.06;;;16.59;52.27
30682;BME280;17439;48.092;11.842;2023-04-27T09:36:23;95559.56;;;16.60;50.96
30682;BME280;17439;48.092;11.842;2023-04-27T09:38:51;95551.56;;;16.67;51.45
30682;BME280;17439;48.092;11.842;2023-04-27T09:41:18;95555.75;;;16.77;52.85
30682;BME280;17439;48.092;11.842;2023-04-27T09:43:45;95555.28;;;16.87;53.33
30682;BME280;17439;48.092;11.842;2023-04-27T09:46:13;95551.34;;;17.00;52.67
30682;BME280;17439;48.092;11.842;2023-04-27T09:48:41;95552.88;;;17.14;52.48
30682;BME280;17439;48.092;11.842;2023-04-27T09:51:07;95540.63;;;17.23;52.34
30682;BME280;17439;48.092;11.842;2023-04-27T09:53:51;95538.88;;;17.31;48.22
30682;BME280;17439;48.092;11.842;2023-04-27T10:02:05;95531.09;;;17.49;49.46
30682;BME280;17439;48.092;11.842;2023-04-27T10:05:05;95526.16;;;17.55;42.33
30682;BME280;17439;48.092;11.842;2023-04-27T10:07:38;95528.69;;;17.64;42.20
30682;BME280;17439;48.092;11.842;2023-04-27T10:10:05;95532.25;;;17.64;43.32
30682;BME280;17439;48.092;11.842;2023-04-27T10:12:35;95529.06;;;17.62;44.58
30682;BME280;17439;48.092;11.842;2023-04-27T10:15:13;95522.16;;;17.52;42.46
30682;BME280;17439;48.092;11.842;2023-04-27T10:17:50;95529.13;;;17.50;44.52
30682;BME280;17439;48.092;11.842;2023-04-27T10:20:28;95529.75;;;17.43;41.68
30682;BME280;17439;48.092;11.842;2023-04-27T10:22:55;95511.97;;;17.37;46.00
30682;BME280;17439;48.092;11.842;2023-04-27T10:25:27;95516.69;;;17.36;43.62
30682;BME280;17439;48.092;11.842;2023-04-27T10:30:25;95516.50;;;17.29;44.43
30682;BME280;17439;48.092;11.842;2023-04-27T10:32:54;95511.81;;;17.30;41.55
30682;BME280;17439;48.092;11.842;2023-04-27T10:35:32;95503.94;;;17.28;41.52
30682;BME280;17439;48.092;11.842;2023-04-27T10:38:08;95506.59;;;17.25;42.43
30682;BME280;17439;48.092;11.842;2023-04-27T10:40:36;95494.59;;;17.29;42.45
30682;BME280;17439;48.092;11.842;2023-04-27T10:43:14;95512.25;;;17.32;42.99
30682;BME280;17439;48.092;11.842;2023-04-27T10:45:43;95510.84;;;17.22;41.50
30682;BME280;17439;48.092;11.842;2023-04-27T10:48:12;95518.28;;;17.37;46.85
30682;BME280;17439;48.092;11.842;2023-04-27T10:50:39;95505.28;;;17.34;47.31
30682;BME280;17439;48.092;11.842;2023-04-27T10:53:07;95513.06;;;17.48;48.32
30682;BME280;17439;48.092;11.842;2023-04-27T10:55:34;95504.56;;;17.53;47.98
30682;BME280;17439;48.092;11.842;2023-04-27T10:58:01;95500.94;;;17.65;44.84
30682;BME280;17439;48.092;11.842;2023-04-27T11:00:33;95504.56;;;17.69;44.20
30682;BME280;17439;48.092;11.842;2023-04-27T11:03:18;95505.28;;;17.66;43.43
30682;BME280;17439;48.092;11.842;2023-04-27T11:05:46;95504.56;;;17.69;45.14
30682;BME280;17439;48.092;11.842;2023-04-27T11:08:15;95499.44;;;17.68;44.41
30682;BME280;17439;48.092;11.842;2023-04-27T11:10:44;95497.13;;;17.70;42.66
30682;BME280;17439;48.092;11.842;2023-04-27T11:13:13;95503.66;;;17.65;43.56
30682;BME280;17439;48.092;11.842;2023-04-27T11:15:47;95501.38;;;17.67;40.97
30682;BME280;17439;48.092;11.842;2023-04-27T11:18:16;95498.72;;;17.71;40.00
30682;BME280;17439;48.092;11.842;2023-04-27T11:20:45;95495.44;;;17.65;39.79
30682;BME280;17439;48.092;11.842;2023-04-27T11:23:26;95507.03;;;17.58;42.86
30682;BME280;17439;48.092;11.842;2023-04-27T11:25:54;95502.47;;;17.63;40.04
30682;BME280;17439;48.092;11.842;2023-04-27T11:28:22;95499.25;;;17.61;43.01
30682;BME280;17439;48.092;11.842;2023-04-27T11:30:58;95499.94;;;17.73;41.00
30682;BME280;17439;48.092;11.842;2023-04-27T11:33:25;95505.34;;;17.86;38.71
30682;BME280;17439;48.092;11.842;2023-04-27T11:35:53;95500.91;;;17.81;41.68
30682;BME280;17439;48.092;11.842;2023-04-27T11:38:20;95508.34;;;17.81;43.04
30682;BME280;17439;48.092;11.842;2023-04-27T11:40:57;95507.09;;;17.78;43.10
30682;BME280;17439;48.092;11.842;2023-04-27T11:43:24;95510.31;;;17.80;44.37
30682;BME280;17439;48.092;11.842;2023-04-27T11:45:51;95504.97;;;17.87;43.34
30682;BME280;17439;48.092;11.842;2023-04-27T11:48:18;95522.00;;;17.93;44.16
30682;BME280;17439;48.092;11.842;2023-04-27T11:50:46;95519.69;;;17.95;44.82
30682;BME280;17439;48.092;11.842;2023-04-27T11:53:13;95518.19;;;17.98;44.79
30682;BME280;17439;48.092;11.842;2023-04-27T11:55:42;95516.22;;;17.98;44.75
30682;BME280;17439;48.092;11.842;2023-04-27T11:58:15;95517.72;;;17.95;40.85
30682;BME280;17439;48.092;11.842;2023-04-27T12:00:42;95515.09;;;17.99;44.73
30682;BME280;17439;48.092;11.842;2023-04-27T12:03:08;95512.06;;;18.04;45.52
30682;BME280;17439;48.092;11.842;2023-04-27T12:05:46;95515.66;;;18.08;42.54
30682;BME280;17439;48.092;11.842;2023-04-27T12:08:13;95520.06;;;18.13;44.69
30682;BME280;17439;48.092;11.842;2023-04-27T12:10:39;95521.25;;;18.12;43.96
30682;BME280;17439;48.092;11.842;2023-04-27T12:13:06;95522.47;;;18.15;44.48
30682;BME280;17439;48.092;11.842;2023-04-27T12:15:33;95526.16;;;18.22;42.48
30682;BME280;17439;48.092;11.842;2023-04-27T12:17:59;95518.72;;;18.23;44.46
30682;BME280;17439;48.092;11.842;2023-04-27T12:20:26;95522.00;;;18.28;44.57
30682;BME280;17439;48.092;11.842;2023-04-27T12:22:53;95515.13;;;18.38;44.17
30682;BME280;17439;48.092;11.842;2023-04-27T12:25:20;95511.38;;;18.46;44.48
30682;BME280;17439;48.092;11.842;2023-04-27T12:27:47;95512.34;;;18.54;44.27
30682;BME280;17439;48.092;11.842;2023-04-27T12:30:13;95512.03;;;18.59;43.86
30682;BME280;17439;48.092;11.842;2023-04-27T12:32:40;95522.75;;;18.64;44.71
30682;BME280;17439;48.092;11.842;2023-04-27T12:35:08;95517.69;;;18.66;44.52
30682;BME280;17439;48.092;11.842;2023-04-27T12:37:35;95527.88;;;18.66;44.98
30682;BME280;17439;48.092;11.842;2023-04-27T12:40:02;95520.78;;;18.65;44.39
30682;BME280;17439;48.092;11.842;2023-04-27T12:42:29;95521.22;;;18.67;42.95
30682;BME280;17439;48.092;11.842;2023-04-27T12:44:55;95520.06;;;18.68;42.67
30682;BME280;17439;48.092;11.842;2023-04-27T12:47:22;95522.09;;;18.71;44.15
30682;BME280;17439;48.092;11.842;2023-04-27T12:49:52;95522.59;;;18.77;44.05
30682;BME280;17439;48.092;11.842;2023-04-27T12:52:18;95517.34;;;18.88;42.00
30682;BME280;17439;48.092;11.842;2023-04-27T12:54:45;95518.63;;;18.94;41.84
30682;BME280;17439;48.092;11.842;2023-04-27T12:57:11;95511.69;;;19.00;42.02
30682;BME280;17439;48.092;11.842;2023-04-27T12:59:38;95513.28;;;19.01;43.08
30682;BME280;17439;48.092;11.842;2023-04-27T13:02:05;95511.75;;;19.03;43.74
30682;BME280;17439;48.092;11.842;2023-04-27T13:04:32;95513.78;;;19.07;43.97
30682;BME280;17439;48.092;11.842;2023-04-27T13:06:59;95509.78;;;19.04;43.06